Main page


Airports :

Banja Luka, Bosnia and Herzegovina

Banja Luka International Airport

latitude: 44-47N, longitude: 017-13E, elevation: 156 m

Current weather observation

The report was made 23 minutes ago, at 17:00 UTC
Wind 3 kt from the East/Northeast
Temperature 5°C
Humidity 65%
Pressure 1007 hPa
Visibility 10 km or more
Scattered clouds at a height of 4700 ft

METAR: LQBK 241700Z 07003KT 9999 SCT047 05/M01 Q1007 NOSIG

Time: 18:23 (17:23 UTC)


The report was made 6 hours and 23 minutes ago, at 11:00 UTC
Forecast valid from 24 at 12 UTC to 25 at 12 UTC
Wind 5 kt from the East
Visibility 10 km or more
no clouds below 1500 m and no cumulonimbus
from 24 at 21 UTC to 25 at 09 UTC
Visibility: 1500 m
Broken clouds at a height of 500 ft
Probability 40% :
from 25 at 00 UTC to 25 at 08 UTC
Visibility: 0200 m
freezing fog

TAF: LQBK 241100Z 2412/2512 09005KT CAVOK TX05/2413Z TNM03/2504Z TEMPO 2421/2509 1500 BR BKN005 PROB40 TEMPO 2500/2508 0200 FZFG

Weather observations and forecasts of more than 4000 airports (METAR and TAF reports).

The available stations are represented by yellow and red dots on the map.

Hover mouse over dot to see the name of the station.

Then click to see weather observations and forecasts.

To change the map : click on the green buttons with a black cross to zoom in, on the green button with a dash to zoom out, or on the green arrows for adjacent maps.